<?xml version="1.0" encoding="UTF-8" standalone="no" ?>
<gpx xmlns="http://www.topografix.com/GPX/1/1" xmlns:xsi="http://www.w3.org/2001/XMLSchema-instance" xsi:schemaLocation="http://www.topografix.com/GPX/1/1 http://www.topografix.com/GPX/1/1/gpx.xsd" version="1.1" creator="VisuGPX - https://www.visugpx.com">
  <metadata>
    <name>Randonnée du 01/04/2021 à 09:30</name>
  </metadata>
  <trk>
    <name><![CDATA[Randonnée du 01/04/2021 à 09:30]]></name>
    <trkseg>
      <trkpt lat="44.93452" lon="5.73844">
        <ele>1252</ele>
        <time>2021-04-01T13:02:16+02:00</time>
      </trkpt>
      <trkpt lat="44.9346" lon="5.73814">
        <ele>1276</ele>
        <time>2021-04-01T13:09:17+02:00</time>
      </trkpt>
      <trkpt lat="44.93479" lon="5.73795">
        <ele>1279</ele>
        <time>2021-04-01T13:09:38+02:00</time>
      </trkpt>
      <trkpt lat="44.93499" lon="5.73782">
        <ele>1279</ele>
        <time>2021-04-01T13:09:56+02:00</time>
      </trkpt>
      <trkpt lat="44.93519" lon="5.73766">
        <ele>1278</ele>
        <time>2021-04-01T13:10:15+02:00</time>
      </trkpt>
      <trkpt lat="44.93504" lon="5.73791">
        <ele>1277</ele>
        <time>2021-04-01T13:11:28+02:00</time>
      </trkpt>
      <trkpt lat="44.93493" lon="5.7382">
        <ele>1281</ele>
        <time>2021-04-01T13:12:01+02:00</time>
      </trkpt>
      <trkpt lat="44.93475" lon="5.73841">
        <ele>1289</ele>
        <time>2021-04-01T13:12:25+02:00</time>
      </trkpt>
      <trkpt lat="44.93475" lon="5.73873">
        <ele>1287</ele>
        <time>2021-04-01T13:12:51+02:00</time>
      </trkpt>
      <trkpt lat="44.93463" lon="5.73901">
        <ele>1294</ele>
        <time>2021-04-01T13:13:27+02:00</time>
      </trkpt>
      <trkpt lat="44.93456" lon="5.73932">
        <ele>1304</ele>
        <time>2021-04-01T13:13:57+02:00</time>
      </trkpt>
      <trkpt lat="44.93479" lon="5.73935">
        <ele>1304</ele>
        <time>2021-04-01T13:14:21+02:00</time>
      </trkpt>
      <trkpt lat="44.93502" lon="5.7393">
        <ele>1311</ele>
        <time>2021-04-01T13:14:47+02:00</time>
      </trkpt>
      <trkpt lat="44.9348" lon="5.73944">
        <ele>1311</ele>
        <time>2021-04-01T13:15:25+02:00</time>
      </trkpt>
      <trkpt lat="44.93489" lon="5.73973">
        <ele>1316</ele>
        <time>2021-04-01T13:16:24+02:00</time>
      </trkpt>
      <trkpt lat="44.93474" lon="5.73998">
        <ele>1323</ele>
        <time>2021-04-01T13:16:55+02:00</time>
      </trkpt>
      <trkpt lat="44.93456" lon="5.74017">
        <ele>1328</ele>
        <time>2021-04-01T13:17:25+02:00</time>
      </trkpt>
      <trkpt lat="44.93434" lon="5.74028">
        <ele>1328</ele>
        <time>2021-04-01T13:17:48+02:00</time>
      </trkpt>
      <trkpt lat="44.93412" lon="5.74029">
        <ele>1330</ele>
        <time>2021-04-01T13:18:14+02:00</time>
      </trkpt>
      <trkpt lat="44.93392" lon="5.74044">
        <ele>1344</ele>
        <time>2021-04-01T13:18:43+02:00</time>
      </trkpt>
      <trkpt lat="44.93372" lon="5.74061">
        <ele>1345</ele>
        <time>2021-04-01T13:19:19+02:00</time>
      </trkpt>
      <trkpt lat="44.9339" lon="5.74084">
        <ele>1342</ele>
        <time>2021-04-01T13:19:48+02:00</time>
      </trkpt>
      <trkpt lat="44.93408" lon="5.74104">
        <ele>1345</ele>
        <time>2021-04-01T13:20:39+02:00</time>
      </trkpt>
      <trkpt lat="44.9343" lon="5.74113">
        <ele>1352</ele>
        <time>2021-04-01T13:21:04+02:00</time>
      </trkpt>
      <trkpt lat="44.93452" lon="5.74122">
        <ele>1356</ele>
        <time>2021-04-01T13:21:27+02:00</time>
      </trkpt>
      <trkpt lat="44.93473" lon="5.74135">
        <ele>1357</ele>
        <time>2021-04-01T13:21:57+02:00</time>
      </trkpt>
      <trkpt lat="44.93475" lon="5.74167">
        <ele>1360</ele>
        <time>2021-04-01T13:24:59+02:00</time>
      </trkpt>
      <trkpt lat="44.93468" lon="5.74198">
        <ele>1364</ele>
        <time>2021-04-01T13:25:33+02:00</time>
      </trkpt>
      <trkpt lat="44.93461" lon="5.74229">
        <ele>1368</ele>
        <time>2021-04-01T13:26:02+02:00</time>
      </trkpt>
      <trkpt lat="44.9346" lon="5.74261">
        <ele>1366</ele>
        <time>2021-04-01T13:26:25+02:00</time>
      </trkpt>
      <trkpt lat="44.93459" lon="5.74293">
        <ele>1366</ele>
        <time>2021-04-01T13:26:51+02:00</time>
      </trkpt>
      <trkpt lat="44.93455" lon="5.74325">
        <ele>1369</ele>
        <time>2021-04-01T13:27:21+02:00</time>
      </trkpt>
      <trkpt lat="44.93451" lon="5.74357">
        <ele>1368</ele>
        <time>2021-04-01T13:27:48+02:00</time>
      </trkpt>
      <trkpt lat="44.93444" lon="5.74387">
        <ele>1366</ele>
        <time>2021-04-01T13:28:17+02:00</time>
      </trkpt>
      <trkpt lat="44.93441" lon="5.74419">
        <ele>1373</ele>
        <time>2021-04-01T13:28:49+02:00</time>
      </trkpt>
      <trkpt lat="44.93426" lon="5.74444">
        <ele>1382</ele>
        <time>2021-04-01T13:29:27+02:00</time>
      </trkpt>
      <trkpt lat="44.93419" lon="5.74474">
        <ele>1387</ele>
        <time>2021-04-01T13:29:56+02:00</time>
      </trkpt>
      <trkpt lat="44.93421" lon="5.74507">
        <ele>1387</ele>
        <time>2021-04-01T13:30:31+02:00</time>
      </trkpt>
      <trkpt lat="44.93423" lon="5.74539">
        <ele>1388</ele>
        <time>2021-04-01T13:30:58+02:00</time>
      </trkpt>
      <trkpt lat="44.93411" lon="5.74566">
        <ele>1394</ele>
        <time>2021-04-01T13:31:30+02:00</time>
      </trkpt>
      <trkpt lat="44.9339" lon="5.74579">
        <ele>1398</ele>
        <time>2021-04-01T13:31:52+02:00</time>
      </trkpt>
      <trkpt lat="44.93377" lon="5.74607">
        <ele>1399</ele>
        <time>2021-04-01T13:32:17+02:00</time>
      </trkpt>
      <trkpt lat="44.93364" lon="5.74634">
        <ele>1401</ele>
        <time>2021-04-01T13:32:37+02:00</time>
      </trkpt>
      <trkpt lat="44.93344" lon="5.74651">
        <ele>1407</ele>
        <time>2021-04-01T13:32:58+02:00</time>
      </trkpt>
      <trkpt lat="44.93327" lon="5.74673">
        <ele>1409</ele>
        <time>2021-04-01T13:33:22+02:00</time>
      </trkpt>
      <trkpt lat="44.93306" lon="5.74684">
        <ele>1405</ele>
        <time>2021-04-01T13:33:53+02:00</time>
      </trkpt>
      <trkpt lat="44.93282" lon="5.74689">
        <ele>1407</ele>
        <time>2021-04-01T13:34:14+02:00</time>
      </trkpt>
      <trkpt lat="44.93259" lon="5.74685">
        <ele>1405</ele>
        <time>2021-04-01T13:34:41+02:00</time>
      </trkpt>
      <trkpt lat="44.93239" lon="5.7467">
        <ele>1408</ele>
        <time>2021-04-01T13:35:07+02:00</time>
      </trkpt>
      <trkpt lat="44.93219" lon="5.74655">
        <ele>1409</ele>
        <time>2021-04-01T13:35:30+02:00</time>
      </trkpt>
      <trkpt lat="44.93196" lon="5.74658">
        <ele>1404</ele>
        <time>2021-04-01T13:35:56+02:00</time>
      </trkpt>
      <trkpt lat="44.93182" lon="5.74684">
        <ele>1401</ele>
        <time>2021-04-01T13:36:17+02:00</time>
      </trkpt>
      <trkpt lat="44.93169" lon="5.74714">
        <ele>1398</ele>
        <time>2021-04-01T13:36:44+02:00</time>
      </trkpt>
      <trkpt lat="44.93167" lon="5.74747">
        <ele>1396</ele>
        <time>2021-04-01T13:37:02+02:00</time>
      </trkpt>
      <trkpt lat="44.93155" lon="5.74774">
        <ele>1393</ele>
        <time>2021-04-01T13:37:19+02:00</time>
      </trkpt>
      <trkpt lat="44.93138" lon="5.74798">
        <ele>1398</ele>
        <time>2021-04-01T13:37:44+02:00</time>
      </trkpt>
      <trkpt lat="44.93126" lon="5.74826">
        <ele>1397</ele>
        <time>2021-04-01T13:38:03+02:00</time>
      </trkpt>
      <trkpt lat="44.93115" lon="5.74856">
        <ele>1392</ele>
        <time>2021-04-01T13:38:24+02:00</time>
      </trkpt>
      <trkpt lat="44.93102" lon="5.74883">
        <ele>1389</ele>
        <time>2021-04-01T13:38:51+02:00</time>
      </trkpt>
      <trkpt lat="44.93083" lon="5.74901">
        <ele>1391</ele>
        <time>2021-04-01T13:39:15+02:00</time>
      </trkpt>
      <trkpt lat="44.93074" lon="5.7493">
        <ele>1387</ele>
        <time>2021-04-01T13:39:38+02:00</time>
      </trkpt>
      <trkpt lat="44.93086" lon="5.74957">
        <ele>1382</ele>
        <time>2021-04-01T13:40:32+02:00</time>
      </trkpt>
      <trkpt lat="44.93069" lon="5.74936">
        <ele>1396</ele>
        <time>2021-04-01T13:45:33+02:00</time>
      </trkpt>
      <trkpt lat="44.93081" lon="5.74908">
        <ele>1398</ele>
        <time>2021-04-01T13:46:13+02:00</time>
      </trkpt>
      <trkpt lat="44.93101" lon="5.74893">
        <ele>1403</ele>
        <time>2021-04-01T13:46:42+02:00</time>
      </trkpt>
      <trkpt lat="44.93111" lon="5.74864">
        <ele>1407</ele>
        <time>2021-04-01T13:47:06+02:00</time>
      </trkpt>
      <trkpt lat="44.93118" lon="5.74833">
        <ele>1414</ele>
        <time>2021-04-01T13:47:34+02:00</time>
      </trkpt>
      <trkpt lat="44.93128" lon="5.74804">
        <ele>1414</ele>
        <time>2021-04-01T13:48:01+02:00</time>
      </trkpt>
      <trkpt lat="44.93137" lon="5.74773">
        <ele>1414</ele>
        <time>2021-04-01T13:48:43+02:00</time>
      </trkpt>
      <trkpt lat="44.93143" lon="5.74742">
        <ele>1422</ele>
        <time>2021-04-01T13:49:10+02:00</time>
      </trkpt>
      <trkpt lat="44.93146" lon="5.7471">
        <ele>1424</ele>
        <time>2021-04-01T13:49:37+02:00</time>
      </trkpt>
      <trkpt lat="44.93155" lon="5.74681">
        <ele>1427</ele>
        <time>2021-04-01T13:50:06+02:00</time>
      </trkpt>
      <trkpt lat="44.93162" lon="5.7465">
        <ele>1432</ele>
        <time>2021-04-01T13:50:35+02:00</time>
      </trkpt>
      <trkpt lat="44.93177" lon="5.74625">
        <ele>1434</ele>
        <time>2021-04-01T13:51:08+02:00</time>
      </trkpt>
      <trkpt lat="44.932" lon="5.7462">
        <ele>1432</ele>
        <time>2021-04-01T13:51:30+02:00</time>
      </trkpt>
      <trkpt lat="44.93222" lon="5.74613">
        <ele>1427</ele>
        <time>2021-04-01T13:51:59+02:00</time>
      </trkpt>
      <trkpt lat="44.93241" lon="5.74594">
        <ele>1432</ele>
        <time>2021-04-01T13:52:23+02:00</time>
      </trkpt>
      <trkpt lat="44.93249" lon="5.74563">
        <ele>1428</ele>
        <time>2021-04-01T13:52:47+02:00</time>
      </trkpt>
      <trkpt lat="44.9324" lon="5.74534">
        <ele>1428</ele>
        <time>2021-04-01T13:53:15+02:00</time>
      </trkpt>
      <trkpt lat="44.93222" lon="5.74515">
        <ele>1431</ele>
        <time>2021-04-01T13:54:11+02:00</time>
      </trkpt>
      <trkpt lat="44.93205" lon="5.74493">
        <ele>1432</ele>
        <time>2021-04-01T13:54:37+02:00</time>
      </trkpt>
      <trkpt lat="44.93197" lon="5.74462">
        <ele>1432</ele>
        <time>2021-04-01T13:55:07+02:00</time>
      </trkpt>
      <trkpt lat="44.93191" lon="5.74431">
        <ele>1438</ele>
        <time>2021-04-01T13:55:31+02:00</time>
      </trkpt>
      <trkpt lat="44.93188" lon="5.744">
        <ele>1436</ele>
        <time>2021-04-01T13:56:05+02:00</time>
      </trkpt>
      <trkpt lat="44.93174" lon="5.74375">
        <ele>1438</ele>
        <time>2021-04-01T13:56:36+02:00</time>
      </trkpt>
      <trkpt lat="44.93159" lon="5.74351">
        <ele>1440</ele>
        <time>2021-04-01T13:57:09+02:00</time>
      </trkpt>
      <trkpt lat="44.93144" lon="5.74327">
        <ele>1444</ele>
        <time>2021-04-01T13:57:42+02:00</time>
      </trkpt>
      <trkpt lat="44.93126" lon="5.74305">
        <ele>1452</ele>
        <time>2021-04-01T13:58:18+02:00</time>
      </trkpt>
      <trkpt lat="44.93114" lon="5.74278">
        <ele>1454</ele>
        <time>2021-04-01T13:58:48+02:00</time>
      </trkpt>
      <trkpt lat="44.93102" lon="5.7425">
        <ele>1461</ele>
        <time>2021-04-01T13:59:20+02:00</time>
      </trkpt>
      <trkpt lat="44.93089" lon="5.74223">
        <ele>1464</ele>
        <time>2021-04-01T14:00:22+02:00</time>
      </trkpt>
      <trkpt lat="44.93072" lon="5.74201">
        <ele>1467</ele>
        <time>2021-04-01T14:00:56+02:00</time>
      </trkpt>
      <trkpt lat="44.9305" lon="5.7419">
        <ele>1470</ele>
        <time>2021-04-01T14:01:35+02:00</time>
      </trkpt>
      <trkpt lat="44.93028" lon="5.74189">
        <ele>1477</ele>
        <time>2021-04-01T14:02:07+02:00</time>
      </trkpt>
      <trkpt lat="44.93005" lon="5.74189">
        <ele>1485</ele>
        <time>2021-04-01T14:02:42+02:00</time>
      </trkpt>
      <trkpt lat="44.92984" lon="5.74202">
        <ele>1490</ele>
        <time>2021-04-01T14:03:23+02:00</time>
      </trkpt>
      <trkpt lat="44.92965" lon="5.74218">
        <ele>1491</ele>
        <time>2021-04-01T14:03:59+02:00</time>
      </trkpt>
      <trkpt lat="44.92945" lon="5.74235">
        <ele>1495</ele>
        <time>2021-04-01T14:04:48+02:00</time>
      </trkpt>
      <trkpt lat="44.92925" lon="5.7425">
        <ele>1498</ele>
        <time>2021-04-01T14:05:19+02:00</time>
      </trkpt>
      <trkpt lat="44.92914" lon="5.74279">
        <ele>1508</ele>
        <time>2021-04-01T14:06:04+02:00</time>
      </trkpt>
      <trkpt lat="44.92916" lon="5.74311">
        <ele>1515</ele>
        <time>2021-04-01T14:06:47+02:00</time>
      </trkpt>
      <trkpt lat="44.92925" lon="5.74341">
        <ele>1520</ele>
        <time>2021-04-01T14:07:28+02:00</time>
      </trkpt>
      <trkpt lat="44.92933" lon="5.74371">
        <ele>1527</ele>
        <time>2021-04-01T14:08:18+02:00</time>
      </trkpt>
      <trkpt lat="44.92939" lon="5.74402">
        <ele>1533</ele>
        <time>2021-04-01T14:09:01+02:00</time>
      </trkpt>
      <trkpt lat="44.92939" lon="5.74434">
        <ele>1540</ele>
        <time>2021-04-01T14:09:47+02:00</time>
      </trkpt>
      <trkpt lat="44.92948" lon="5.74462">
        <ele>1550</ele>
        <time>2021-04-01T14:10:37+02:00</time>
      </trkpt>
      <trkpt lat="44.92932" lon="5.74484">
        <ele>1551</ele>
        <time>2021-04-01T14:20:03+02:00</time>
      </trkpt>
      <trkpt lat="44.92909" lon="5.74486">
        <ele>1549</ele>
        <time>2021-04-01T14:20:53+02:00</time>
      </trkpt>
      <trkpt lat="44.92886" lon="5.74486">
        <ele>1543</ele>
        <time>2021-04-01T14:21:20+02:00</time>
      </trkpt>
      <trkpt lat="44.92863" lon="5.74482">
        <ele>1542</ele>
        <time>2021-04-01T14:21:44+02:00</time>
      </trkpt>
      <trkpt lat="44.92841" lon="5.74475">
        <ele>1540</ele>
        <time>2021-04-01T14:23:14+02:00</time>
      </trkpt>
      <trkpt lat="44.92818" lon="5.74471">
        <ele>1539</ele>
        <time>2021-04-01T14:23:35+02:00</time>
      </trkpt>
      <trkpt lat="44.92796" lon="5.74462">
        <ele>1538</ele>
        <time>2021-04-01T14:23:56+02:00</time>
      </trkpt>
      <trkpt lat="44.92775" lon="5.74448">
        <ele>1536</ele>
        <time>2021-04-01T14:24:18+02:00</time>
      </trkpt>
      <trkpt lat="44.92753" lon="5.74438">
        <ele>1535</ele>
        <time>2021-04-01T14:24:40+02:00</time>
      </trkpt>
      <trkpt lat="44.9273" lon="5.74432">
        <ele>1534</ele>
        <time>2021-04-01T14:25:01+02:00</time>
      </trkpt>
      <trkpt lat="44.92707" lon="5.74434">
        <ele>1531</ele>
        <time>2021-04-01T14:25:25+02:00</time>
      </trkpt>
      <trkpt lat="44.92684" lon="5.74426">
        <ele>1532</ele>
        <time>2021-04-01T14:25:47+02:00</time>
      </trkpt>
      <trkpt lat="44.92662" lon="5.74416">
        <ele>1527</ele>
        <time>2021-04-01T14:26:12+02:00</time>
      </trkpt>
      <trkpt lat="44.9264" lon="5.74414">
        <ele>1522</ele>
        <time>2021-04-01T14:26:37+02:00</time>
      </trkpt>
      <trkpt lat="44.92617" lon="5.74407">
        <ele>1522</ele>
        <time>2021-04-01T14:27:04+02:00</time>
      </trkpt>
      <trkpt lat="44.92594" lon="5.74402">
        <ele>1521</ele>
        <time>2021-04-01T14:27:27+02:00</time>
      </trkpt>
      <trkpt lat="44.92572" lon="5.74399">
        <ele>1518</ele>
        <time>2021-04-01T14:27:49+02:00</time>
      </trkpt>
      <trkpt lat="44.92548" lon="5.74398">
        <ele>1517</ele>
        <time>2021-04-01T14:28:11+02:00</time>
      </trkpt>
      <trkpt lat="44.92526" lon="5.74394">
        <ele>1513</ele>
        <time>2021-04-01T14:28:33+02:00</time>
      </trkpt>
      <trkpt lat="44.92503" lon="5.74391">
        <ele>1512</ele>
        <time>2021-04-01T14:28:55+02:00</time>
      </trkpt>
      <trkpt lat="44.9248" lon="5.74388">
        <ele>1512</ele>
        <time>2021-04-01T14:29:16+02:00</time>
      </trkpt>
      <trkpt lat="44.92458" lon="5.74382">
        <ele>1513</ele>
        <time>2021-04-01T14:29:35+02:00</time>
      </trkpt>
      <trkpt lat="44.92435" lon="5.74374">
        <ele>1512</ele>
        <time>2021-04-01T14:29:58+02:00</time>
      </trkpt>
      <trkpt lat="44.92414" lon="5.74362">
        <ele>1514</ele>
        <time>2021-04-01T14:30:21+02:00</time>
      </trkpt>
      <trkpt lat="44.92393" lon="5.74345">
        <ele>1516</ele>
        <time>2021-04-01T14:30:41+02:00</time>
      </trkpt>
      <trkpt lat="44.92372" lon="5.74331">
        <ele>1518</ele>
        <time>2021-04-01T14:31:06+02:00</time>
      </trkpt>
      <trkpt lat="44.92351" lon="5.74316">
        <ele>1517</ele>
        <time>2021-04-01T14:31:26+02:00</time>
      </trkpt>
      <trkpt lat="44.92331" lon="5.743">
        <ele>1518</ele>
        <time>2021-04-01T14:31:50+02:00</time>
      </trkpt>
      <trkpt lat="44.92311" lon="5.74284">
        <ele>1521</ele>
        <time>2021-04-01T14:32:16+02:00</time>
      </trkpt>
      <trkpt lat="44.92291" lon="5.74264">
        <ele>1526</ele>
        <time>2021-04-01T14:32:45+02:00</time>
      </trkpt>
      <trkpt lat="44.92271" lon="5.74248">
        <ele>1530</ele>
        <time>2021-04-01T14:33:12+02:00</time>
      </trkpt>
      <trkpt lat="44.92253" lon="5.74229">
        <ele>1532</ele>
        <time>2021-04-01T14:33:38+02:00</time>
      </trkpt>
      <trkpt lat="44.92232" lon="5.74216">
        <ele>1540</ele>
        <time>2021-04-01T14:34:25+02:00</time>
      </trkpt>
      <trkpt lat="44.92214" lon="5.74198">
        <ele>1541</ele>
        <time>2021-04-01T14:34:56+02:00</time>
      </trkpt>
      <trkpt lat="44.92204" lon="5.74169">
        <ele>1559</ele>
        <time>2021-04-01T14:35:49+02:00</time>
      </trkpt>
      <trkpt lat="44.922" lon="5.74138">
        <ele>1562</ele>
        <time>2021-04-01T14:36:39+02:00</time>
      </trkpt>
      <trkpt lat="44.92196" lon="5.74105">
        <ele>1568</ele>
        <time>2021-04-01T14:37:13+02:00</time>
      </trkpt>
      <trkpt lat="44.92182" lon="5.7408">
        <ele>1570</ele>
        <time>2021-04-01T14:37:42+02:00</time>
      </trkpt>
      <trkpt lat="44.92161" lon="5.74065">
        <ele>1570</ele>
        <time>2021-04-01T14:38:56+02:00</time>
      </trkpt>
      <trkpt lat="44.92138" lon="5.74059">
        <ele>1568</ele>
        <time>2021-04-01T14:39:17+02:00</time>
      </trkpt>
      <trkpt lat="44.92117" lon="5.74047">
        <ele>1567</ele>
        <time>2021-04-01T14:39:55+02:00</time>
      </trkpt>
      <trkpt lat="44.92096" lon="5.74033">
        <ele>1567</ele>
        <time>2021-04-01T14:40:18+02:00</time>
      </trkpt>
      <trkpt lat="44.92074" lon="5.74022">
        <ele>1568</ele>
        <time>2021-04-01T14:40:40+02:00</time>
      </trkpt>
      <trkpt lat="44.92052" lon="5.74016">
        <ele>1565</ele>
        <time>2021-04-01T14:41:00+02:00</time>
      </trkpt>
      <trkpt lat="44.9203" lon="5.74007">
        <ele>1568</ele>
        <time>2021-04-01T14:41:22+02:00</time>
      </trkpt>
      <trkpt lat="44.92009" lon="5.73994">
        <ele>1569</ele>
        <time>2021-04-01T14:41:44+02:00</time>
      </trkpt>
      <trkpt lat="44.91986" lon="5.73986">
        <ele>1569</ele>
        <time>2021-04-01T14:42:08+02:00</time>
      </trkpt>
      <trkpt lat="44.91964" lon="5.73978">
        <ele>1570</ele>
        <time>2021-04-01T14:42:31+02:00</time>
      </trkpt>
      <trkpt lat="44.91941" lon="5.73979">
        <ele>1568</ele>
        <time>2021-04-01T14:42:52+02:00</time>
      </trkpt>
      <trkpt lat="44.91918" lon="5.73975">
        <ele>1567</ele>
        <time>2021-04-01T14:43:13+02:00</time>
      </trkpt>
      <trkpt lat="44.91895" lon="5.73971">
        <ele>1566</ele>
        <time>2021-04-01T14:43:33+02:00</time>
      </trkpt>
      <trkpt lat="44.91872" lon="5.73971">
        <ele>1566</ele>
        <time>2021-04-01T14:43:55+02:00</time>
      </trkpt>
      <trkpt lat="44.91849" lon="5.73974">
        <ele>1562</ele>
        <time>2021-04-01T14:44:17+02:00</time>
      </trkpt>
      <trkpt lat="44.91826" lon="5.73964">
        <ele>1563</ele>
        <time>2021-04-01T14:44:37+02:00</time>
      </trkpt>
      <trkpt lat="44.91804" lon="5.73958">
        <ele>1568</ele>
        <time>2021-04-01T14:45:02+02:00</time>
      </trkpt>
      <trkpt lat="44.91783" lon="5.73947">
        <ele>1568</ele>
        <time>2021-04-01T14:47:51+02:00</time>
      </trkpt>
      <trkpt lat="44.91762" lon="5.73935">
        <ele>1567</ele>
        <time>2021-04-01T14:48:13+02:00</time>
      </trkpt>
      <trkpt lat="44.91741" lon="5.73923">
        <ele>1570</ele>
        <time>2021-04-01T14:48:37+02:00</time>
      </trkpt>
      <trkpt lat="44.9172" lon="5.73909">
        <ele>1573</ele>
        <time>2021-04-01T14:49:00+02:00</time>
      </trkpt>
      <trkpt lat="44.91702" lon="5.73888">
        <ele>1578</ele>
        <time>2021-04-01T14:49:27+02:00</time>
      </trkpt>
      <trkpt lat="44.91689" lon="5.73861">
        <ele>1580</ele>
        <time>2021-04-01T14:49:50+02:00</time>
      </trkpt>
      <trkpt lat="44.91675" lon="5.73836">
        <ele>1581</ele>
        <time>2021-04-01T14:50:16+02:00</time>
      </trkpt>
      <trkpt lat="44.91659" lon="5.73812">
        <ele>1582</ele>
        <time>2021-04-01T14:50:44+02:00</time>
      </trkpt>
      <trkpt lat="44.91644" lon="5.73787">
        <ele>1587</ele>
        <time>2021-04-01T14:51:14+02:00</time>
      </trkpt>
      <trkpt lat="44.91628" lon="5.73763">
        <ele>1592</ele>
        <time>2021-04-01T14:51:53+02:00</time>
      </trkpt>
      <trkpt lat="44.91608" lon="5.73748">
        <ele>1592</ele>
        <time>2021-04-01T14:52:28+02:00</time>
      </trkpt>
      <trkpt lat="44.91586" lon="5.73737">
        <ele>1586</ele>
        <time>2021-04-01T14:53:05+02:00</time>
      </trkpt>
      <trkpt lat="44.91564" lon="5.73728">
        <ele>1579</ele>
        <time>2021-04-01T14:53:29+02:00</time>
      </trkpt>
      <trkpt lat="44.91541" lon="5.73724">
        <ele>1576</ele>
        <time>2021-04-01T14:53:52+02:00</time>
      </trkpt>
      <trkpt lat="44.91518" lon="5.73726">
        <ele>1580</ele>
        <time>2021-04-01T14:54:36+02:00</time>
      </trkpt>
      <trkpt lat="44.91496" lon="5.73732">
        <ele>1584</ele>
        <time>2021-04-01T14:55:48+02:00</time>
      </trkpt>
      <trkpt lat="44.91474" lon="5.73744">
        <ele>1587</ele>
        <time>2021-04-01T14:56:15+02:00</time>
      </trkpt>
      <trkpt lat="44.91452" lon="5.73752">
        <ele>1592</ele>
        <time>2021-04-01T14:56:47+02:00</time>
      </trkpt>
      <trkpt lat="44.91429" lon="5.73752">
        <ele>1598</ele>
        <time>2021-04-01T14:57:18+02:00</time>
      </trkpt>
      <trkpt lat="44.91407" lon="5.73741">
        <ele>1602</ele>
        <time>2021-04-01T14:57:46+02:00</time>
      </trkpt>
      <trkpt lat="44.91387" lon="5.73727">
        <ele>1613</ele>
        <time>2021-04-01T14:58:48+02:00</time>
      </trkpt>
      <trkpt lat="44.91372" lon="5.73703">
        <ele>1618</ele>
        <time>2021-04-01T14:59:29+02:00</time>
      </trkpt>
      <trkpt lat="44.91364" lon="5.73673">
        <ele>1617</ele>
        <time>2021-04-01T15:09:27+02:00</time>
      </trkpt>
      <trkpt lat="44.91358" lon="5.73641">
        <ele>1612</ele>
        <time>2021-04-01T15:09:55+02:00</time>
      </trkpt>
      <trkpt lat="44.91346" lon="5.73613">
        <ele>1603</ele>
        <time>2021-04-01T15:10:23+02:00</time>
      </trkpt>
      <trkpt lat="44.91335" lon="5.73584">
        <ele>1599</ele>
        <time>2021-04-01T15:10:47+02:00</time>
      </trkpt>
      <trkpt lat="44.91321" lon="5.73559">
        <ele>1596</ele>
        <time>2021-04-01T15:11:10+02:00</time>
      </trkpt>
      <trkpt lat="44.91307" lon="5.73532">
        <ele>1593</ele>
        <time>2021-04-01T15:11:31+02:00</time>
      </trkpt>
      <trkpt lat="44.91294" lon="5.73506">
        <ele>1588</ele>
        <time>2021-04-01T15:11:51+02:00</time>
      </trkpt>
      <trkpt lat="44.91281" lon="5.7348">
        <ele>1588</ele>
        <time>2021-04-01T15:12:10+02:00</time>
      </trkpt>
      <trkpt lat="44.91267" lon="5.73454">
        <ele>1587</ele>
        <time>2021-04-01T15:12:33+02:00</time>
      </trkpt>
      <trkpt lat="44.91246" lon="5.73441">
        <ele>1586</ele>
        <time>2021-04-01T15:12:52+02:00</time>
      </trkpt>
      <trkpt lat="44.91224" lon="5.73428">
        <ele>1581</ele>
        <time>2021-04-01T15:13:14+02:00</time>
      </trkpt>
      <trkpt lat="44.91203" lon="5.73416">
        <ele>1580</ele>
        <time>2021-04-01T15:13:39+02:00</time>
      </trkpt>
      <trkpt lat="44.91181" lon="5.73404">
        <ele>1582</ele>
        <time>2021-04-01T15:14:01+02:00</time>
      </trkpt>
      <trkpt lat="44.91177" lon="5.73373">
        <ele>1581</ele>
        <time>2021-04-01T15:14:29+02:00</time>
      </trkpt>
      <trkpt lat="44.9118" lon="5.73341">
        <ele>1574</ele>
        <time>2021-04-01T15:14:53+02:00</time>
      </trkpt>
      <trkpt lat="44.91182" lon="5.73308">
        <ele>1571</ele>
        <time>2021-04-01T15:15:17+02:00</time>
      </trkpt>
      <trkpt lat="44.91185" lon="5.73275">
        <ele>1566</ele>
        <time>2021-04-01T15:15:42+02:00</time>
      </trkpt>
      <trkpt lat="44.91188" lon="5.73244">
        <ele>1563</ele>
        <time>2021-04-01T15:16:08+02:00</time>
      </trkpt>
      <trkpt lat="44.91183" lon="5.73212">
        <ele>1562</ele>
        <time>2021-04-01T15:16:29+02:00</time>
      </trkpt>
      <trkpt lat="44.91181" lon="5.73179">
        <ele>1557</ele>
        <time>2021-04-01T15:16:54+02:00</time>
      </trkpt>
      <trkpt lat="44.91175" lon="5.73148">
        <ele>1553</ele>
        <time>2021-04-01T15:17:19+02:00</time>
      </trkpt>
      <trkpt lat="44.91165" lon="5.73118">
        <ele>1550</ele>
        <time>2021-04-01T15:17:42+02:00</time>
      </trkpt>
      <trkpt lat="44.91155" lon="5.73089">
        <ele>1548</ele>
        <time>2021-04-01T15:18:03+02:00</time>
      </trkpt>
      <trkpt lat="44.91141" lon="5.73063">
        <ele>1548</ele>
        <time>2021-04-01T15:18:24+02:00</time>
      </trkpt>
      <trkpt lat="44.91129" lon="5.73036">
        <ele>1546</ele>
        <time>2021-04-01T15:18:46+02:00</time>
      </trkpt>
      <trkpt lat="44.91128" lon="5.73004">
        <ele>1545</ele>
        <time>2021-04-01T15:19:11+02:00</time>
      </trkpt>
      <trkpt lat="44.91129" lon="5.72972">
        <ele>1539</ele>
        <time>2021-04-01T15:19:38+02:00</time>
      </trkpt>
      <trkpt lat="44.91133" lon="5.72941">
        <ele>1536</ele>
        <time>2021-04-01T15:20:02+02:00</time>
      </trkpt>
      <trkpt lat="44.91139" lon="5.7291">
        <ele>1533</ele>
        <time>2021-04-01T15:20:26+02:00</time>
      </trkpt>
      <trkpt lat="44.91152" lon="5.72882">
        <ele>1530</ele>
        <time>2021-04-01T15:20:59+02:00</time>
      </trkpt>
      <trkpt lat="44.91157" lon="5.72852">
        <ele>1526</ele>
        <time>2021-04-01T15:21:19+02:00</time>
      </trkpt>
      <trkpt lat="44.91167" lon="5.72823">
        <ele>1528</ele>
        <time>2021-04-01T15:21:44+02:00</time>
      </trkpt>
      <trkpt lat="44.91172" lon="5.72791">
        <ele>1525</ele>
        <time>2021-04-01T15:22:07+02:00</time>
      </trkpt>
      <trkpt lat="44.91171" lon="5.72758">
        <ele>1522</ele>
        <time>2021-04-01T15:22:33+02:00</time>
      </trkpt>
      <trkpt lat="44.9117" lon="5.72725">
        <ele>1520</ele>
        <time>2021-04-01T15:22:55+02:00</time>
      </trkpt>
      <trkpt lat="44.91174" lon="5.72692">
        <ele>1520</ele>
        <time>2021-04-01T15:23:17+02:00</time>
      </trkpt>
      <trkpt lat="44.91189" lon="5.72669">
        <ele>1515</ele>
        <time>2021-04-01T15:23:44+02:00</time>
      </trkpt>
      <trkpt lat="44.91212" lon="5.72663">
        <ele>1504</ele>
        <time>2021-04-01T15:24:27+02:00</time>
      </trkpt>
      <trkpt lat="44.91225" lon="5.72689">
        <ele>1497</ele>
        <time>2021-04-01T15:24:56+02:00</time>
      </trkpt>
      <trkpt lat="44.91234" lon="5.72718">
        <ele>1491</ele>
        <time>2021-04-01T15:25:25+02:00</time>
      </trkpt>
      <trkpt lat="44.91251" lon="5.72697">
        <ele>1484</ele>
        <time>2021-04-01T15:25:55+02:00</time>
      </trkpt>
      <trkpt lat="44.91269" lon="5.72676">
        <ele>1478</ele>
        <time>2021-04-01T15:26:28+02:00</time>
      </trkpt>
      <trkpt lat="44.91292" lon="5.72669">
        <ele>1469</ele>
        <time>2021-04-01T15:27:03+02:00</time>
      </trkpt>
      <trkpt lat="44.91315" lon="5.72675">
        <ele>1456</ele>
        <time>2021-04-01T15:28:06+02:00</time>
      </trkpt>
      <trkpt lat="44.91323" lon="5.72704">
        <ele>1449</ele>
        <time>2021-04-01T15:28:38+02:00</time>
      </trkpt>
      <trkpt lat="44.91322" lon="5.72736">
        <ele>1441</ele>
        <time>2021-04-01T15:29:55+02:00</time>
      </trkpt>
      <trkpt lat="44.91323" lon="5.72769">
        <ele>1437</ele>
        <time>2021-04-01T15:30:23+02:00</time>
      </trkpt>
      <trkpt lat="44.91337" lon="5.72795">
        <ele>1438</ele>
        <time>2021-04-01T15:30:47+02:00</time>
      </trkpt>
      <trkpt lat="44.91356" lon="5.72815">
        <ele>1438</ele>
        <time>2021-04-01T15:31:16+02:00</time>
      </trkpt>
      <trkpt lat="44.9137" lon="5.72841">
        <ele>1436</ele>
        <time>2021-04-01T15:31:44+02:00</time>
      </trkpt>
      <trkpt lat="44.91375" lon="5.72873">
        <ele>1440</ele>
        <time>2021-04-01T15:32:24+02:00</time>
      </trkpt>
      <trkpt lat="44.9138" lon="5.72905">
        <ele>1439</ele>
        <time>2021-04-01T15:32:55+02:00</time>
      </trkpt>
      <trkpt lat="44.91376" lon="5.72937">
        <ele>1432</ele>
        <time>2021-04-01T15:33:28+02:00</time>
      </trkpt>
      <trkpt lat="44.91373" lon="5.72969">
        <ele>1429</ele>
        <time>2021-04-01T15:34:09+02:00</time>
      </trkpt>
      <trkpt lat="44.91377" lon="5.73002">
        <ele>1423</ele>
        <time>2021-04-01T15:34:41+02:00</time>
      </trkpt>
      <trkpt lat="44.91391" lon="5.73028">
        <ele>1420</ele>
        <time>2021-04-01T15:35:19+02:00</time>
      </trkpt>
      <trkpt lat="44.91408" lon="5.73051">
        <ele>1418</ele>
        <time>2021-04-01T15:35:47+02:00</time>
      </trkpt>
      <trkpt lat="44.91429" lon="5.73062">
        <ele>1420</ele>
        <time>2021-04-01T15:36:18+02:00</time>
      </trkpt>
      <trkpt lat="44.91449" lon="5.73078">
        <ele>1416</ele>
        <time>2021-04-01T15:36:42+02:00</time>
      </trkpt>
      <trkpt lat="44.91467" lon="5.73099">
        <ele>1417</ele>
        <time>2021-04-01T15:37:07+02:00</time>
      </trkpt>
      <trkpt lat="44.91487" lon="5.73115">
        <ele>1411</ele>
        <time>2021-04-01T15:38:23+02:00</time>
      </trkpt>
      <trkpt lat="44.91501" lon="5.73141">
        <ele>1412</ele>
        <time>2021-04-01T15:38:44+02:00</time>
      </trkpt>
      <trkpt lat="44.91519" lon="5.7316">
        <ele>1411</ele>
        <time>2021-04-01T15:39:07+02:00</time>
      </trkpt>
      <trkpt lat="44.91539" lon="5.73176">
        <ele>1414</ele>
        <time>2021-04-01T15:39:35+02:00</time>
      </trkpt>
      <trkpt lat="44.9156" lon="5.73188">
        <ele>1417</ele>
        <time>2021-04-01T15:40:00+02:00</time>
      </trkpt>
      <trkpt lat="44.91574" lon="5.73213">
        <ele>1415</ele>
        <time>2021-04-01T15:40:24+02:00</time>
      </trkpt>
      <trkpt lat="44.91589" lon="5.73238">
        <ele>1413</ele>
        <time>2021-04-01T15:40:49+02:00</time>
      </trkpt>
      <trkpt lat="44.91602" lon="5.73265">
        <ele>1416</ele>
        <time>2021-04-01T15:41:16+02:00</time>
      </trkpt>
      <trkpt lat="44.91621" lon="5.73284">
        <ele>1421</ele>
        <time>2021-04-01T15:41:46+02:00</time>
      </trkpt>
      <trkpt lat="44.91644" lon="5.73282">
        <ele>1424</ele>
        <time>2021-04-01T15:42:11+02:00</time>
      </trkpt>
      <trkpt lat="44.91665" lon="5.73295">
        <ele>1427</ele>
        <time>2021-04-01T15:42:34+02:00</time>
      </trkpt>
      <trkpt lat="44.91688" lon="5.73296">
        <ele>1428</ele>
        <time>2021-04-01T15:42:58+02:00</time>
      </trkpt>
      <trkpt lat="44.91709" lon="5.73281">
        <ele>1430</ele>
        <time>2021-04-01T15:43:21+02:00</time>
      </trkpt>
      <trkpt lat="44.91731" lon="5.73271">
        <ele>1430</ele>
        <time>2021-04-01T15:43:43+02:00</time>
      </trkpt>
      <trkpt lat="44.91753" lon="5.73278">
        <ele>1432</ele>
        <time>2021-04-01T15:44:04+02:00</time>
      </trkpt>
      <trkpt lat="44.91776" lon="5.73285">
        <ele>1433</ele>
        <time>2021-04-01T15:44:27+02:00</time>
      </trkpt>
      <trkpt lat="44.91798" lon="5.73293">
        <ele>1435</ele>
        <time>2021-04-01T15:44:48+02:00</time>
      </trkpt>
      <trkpt lat="44.91818" lon="5.7331">
        <ele>1436</ele>
        <time>2021-04-01T15:45:10+02:00</time>
      </trkpt>
      <trkpt lat="44.91837" lon="5.73328">
        <ele>1434</ele>
        <time>2021-04-01T15:45:33+02:00</time>
      </trkpt>
      <trkpt lat="44.91856" lon="5.73345">
        <ele>1433</ele>
        <time>2021-04-01T15:45:56+02:00</time>
      </trkpt>
      <trkpt lat="44.91873" lon="5.73366">
        <ele>1430</ele>
        <time>2021-04-01T15:46:30+02:00</time>
      </trkpt>
      <trkpt lat="44.91894" lon="5.7338">
        <ele>1431</ele>
        <time>2021-04-01T15:46:53+02:00</time>
      </trkpt>
      <trkpt lat="44.91915" lon="5.73392">
        <ele>1429</ele>
        <time>2021-04-01T15:47:13+02:00</time>
      </trkpt>
      <trkpt lat="44.91938" lon="5.73398">
        <ele>1426</ele>
        <time>2021-04-01T15:47:43+02:00</time>
      </trkpt>
      <trkpt lat="44.9196" lon="5.73397">
        <ele>1425</ele>
        <time>2021-04-01T15:48:03+02:00</time>
      </trkpt>
      <trkpt lat="44.91983" lon="5.73404">
        <ele>1426</ele>
        <time>2021-04-01T15:48:23+02:00</time>
      </trkpt>
      <trkpt lat="44.92006" lon="5.73405">
        <ele>1428</ele>
        <time>2021-04-01T15:48:44+02:00</time>
      </trkpt>
      <trkpt lat="44.92027" lon="5.73394">
        <ele>1426</ele>
        <time>2021-04-01T15:49:05+02:00</time>
      </trkpt>
      <trkpt lat="44.92049" lon="5.73384">
        <ele>1428</ele>
        <time>2021-04-01T15:49:31+02:00</time>
      </trkpt>
      <trkpt lat="44.9207" lon="5.7337">
        <ele>1426</ele>
        <time>2021-04-01T15:49:57+02:00</time>
      </trkpt>
      <trkpt lat="44.92093" lon="5.73371">
        <ele>1421</ele>
        <time>2021-04-01T15:50:16+02:00</time>
      </trkpt>
      <trkpt lat="44.92116" lon="5.73378">
        <ele>1417</ele>
        <time>2021-04-01T15:50:38+02:00</time>
      </trkpt>
      <trkpt lat="44.92138" lon="5.73382">
        <ele>1416</ele>
        <time>2021-04-01T15:50:59+02:00</time>
      </trkpt>
      <trkpt lat="44.92158" lon="5.73397">
        <ele>1411</ele>
        <time>2021-04-01T15:51:22+02:00</time>
      </trkpt>
      <trkpt lat="44.92175" lon="5.7342">
        <ele>1406</ele>
        <time>2021-04-01T15:51:44+02:00</time>
      </trkpt>
      <trkpt lat="44.92197" lon="5.73428">
        <ele>1405</ele>
        <time>2021-04-01T15:52:05+02:00</time>
      </trkpt>
      <trkpt lat="44.92219" lon="5.73415">
        <ele>1407</ele>
        <time>2021-04-01T15:52:26+02:00</time>
      </trkpt>
      <trkpt lat="44.9224" lon="5.73404">
        <ele>1409</ele>
        <time>2021-04-01T15:52:49+02:00</time>
      </trkpt>
      <trkpt lat="44.92263" lon="5.73408">
        <ele>1408</ele>
        <time>2021-04-01T15:53:09+02:00</time>
      </trkpt>
      <trkpt lat="44.92286" lon="5.73414">
        <ele>1410</ele>
        <time>2021-04-01T15:53:29+02:00</time>
      </trkpt>
      <trkpt lat="44.92308" lon="5.7342">
        <ele>1409</ele>
        <time>2021-04-01T15:53:47+02:00</time>
      </trkpt>
      <trkpt lat="44.9233" lon="5.7343">
        <ele>1410</ele>
        <time>2021-04-01T15:54:20+02:00</time>
      </trkpt>
      <trkpt lat="44.92353" lon="5.73441">
        <ele>1409</ele>
        <time>2021-04-01T15:54:40+02:00</time>
      </trkpt>
      <trkpt lat="44.92373" lon="5.73456">
        <ele>1401</ele>
        <time>2021-04-01T15:55:21+02:00</time>
      </trkpt>
      <trkpt lat="44.92392" lon="5.73473">
        <ele>1403</ele>
        <time>2021-04-01T15:55:42+02:00</time>
      </trkpt>
      <trkpt lat="44.92412" lon="5.73493">
        <ele>1399</ele>
        <time>2021-04-01T15:56:19+02:00</time>
      </trkpt>
      <trkpt lat="44.92432" lon="5.73509">
        <ele>1396</ele>
        <time>2021-04-01T15:56:42+02:00</time>
      </trkpt>
      <trkpt lat="44.92454" lon="5.73516">
        <ele>1395</ele>
        <time>2021-04-01T15:57:05+02:00</time>
      </trkpt>
      <trkpt lat="44.92476" lon="5.73526">
        <ele>1393</ele>
        <time>2021-04-01T15:57:27+02:00</time>
      </trkpt>
      <trkpt lat="44.92498" lon="5.73519">
        <ele>1387</ele>
        <time>2021-04-01T15:57:52+02:00</time>
      </trkpt>
      <trkpt lat="44.9252" lon="5.73508">
        <ele>1386</ele>
        <time>2021-04-01T15:58:22+02:00</time>
      </trkpt>
      <trkpt lat="44.92542" lon="5.73502">
        <ele>1385</ele>
        <time>2021-04-01T15:58:47+02:00</time>
      </trkpt>
      <trkpt lat="44.92564" lon="5.73501">
        <ele>1381</ele>
        <time>2021-04-01T15:59:10+02:00</time>
      </trkpt>
      <trkpt lat="44.92587" lon="5.73509">
        <ele>1376</ele>
        <time>2021-04-01T15:59:34+02:00</time>
      </trkpt>
      <trkpt lat="44.92607" lon="5.73522">
        <ele>1372</ele>
        <time>2021-04-01T15:59:57+02:00</time>
      </trkpt>
      <trkpt lat="44.92626" lon="5.7354">
        <ele>1371</ele>
        <time>2021-04-01T16:00:19+02:00</time>
      </trkpt>
      <trkpt lat="44.92648" lon="5.73549">
        <ele>1365</ele>
        <time>2021-04-01T16:00:52+02:00</time>
      </trkpt>
      <trkpt lat="44.92666" lon="5.73528">
        <ele>1365</ele>
        <time>2021-04-01T16:08:00+02:00</time>
      </trkpt>
      <trkpt lat="44.92686" lon="5.73515">
        <ele>1367</ele>
        <time>2021-04-01T16:08:21+02:00</time>
      </trkpt>
      <trkpt lat="44.92708" lon="5.73502">
        <ele>1364</ele>
        <time>2021-04-01T16:08:46+02:00</time>
      </trkpt>
      <trkpt lat="44.92731" lon="5.73502">
        <ele>1360</ele>
        <time>2021-04-01T16:09:09+02:00</time>
      </trkpt>
      <trkpt lat="44.92754" lon="5.73507">
        <ele>1355</ele>
        <time>2021-04-01T16:09:30+02:00</time>
      </trkpt>
      <trkpt lat="44.92777" lon="5.73508">
        <ele>1356</ele>
        <time>2021-04-01T16:09:51+02:00</time>
      </trkpt>
      <trkpt lat="44.92799" lon="5.73513">
        <ele>1355</ele>
        <time>2021-04-01T16:10:11+02:00</time>
      </trkpt>
      <trkpt lat="44.92822" lon="5.73516">
        <ele>1356</ele>
        <time>2021-04-01T16:10:31+02:00</time>
      </trkpt>
      <trkpt lat="44.92845" lon="5.73522">
        <ele>1354</ele>
        <time>2021-04-01T16:10:54+02:00</time>
      </trkpt>
      <trkpt lat="44.92867" lon="5.73524">
        <ele>1352</ele>
        <time>2021-04-01T16:11:14+02:00</time>
      </trkpt>
      <trkpt lat="44.92889" lon="5.73512">
        <ele>1349</ele>
        <time>2021-04-01T16:11:34+02:00</time>
      </trkpt>
      <trkpt lat="44.92909" lon="5.73495">
        <ele>1343</ele>
        <time>2021-04-01T16:11:55+02:00</time>
      </trkpt>
      <trkpt lat="44.92931" lon="5.73485">
        <ele>1339</ele>
        <time>2021-04-01T16:12:17+02:00</time>
      </trkpt>
      <trkpt lat="44.92953" lon="5.73478">
        <ele>1337</ele>
        <time>2021-04-01T16:12:38+02:00</time>
      </trkpt>
      <trkpt lat="44.92975" lon="5.73468">
        <ele>1335</ele>
        <time>2021-04-01T16:13:00+02:00</time>
      </trkpt>
      <trkpt lat="44.92999" lon="5.73465">
        <ele>1335</ele>
        <time>2021-04-01T16:13:20+02:00</time>
      </trkpt>
      <trkpt lat="44.93021" lon="5.73471">
        <ele>1339</ele>
        <time>2021-04-01T16:13:42+02:00</time>
      </trkpt>
      <trkpt lat="44.93045" lon="5.73475">
        <ele>1336</ele>
        <time>2021-04-01T16:14:05+02:00</time>
      </trkpt>
      <trkpt lat="44.93066" lon="5.73486">
        <ele>1336</ele>
        <time>2021-04-01T16:14:25+02:00</time>
      </trkpt>
      <trkpt lat="44.93088" lon="5.73498">
        <ele>1334</ele>
        <time>2021-04-01T16:14:44+02:00</time>
      </trkpt>
      <trkpt lat="44.9311" lon="5.73503">
        <ele>1333</ele>
        <time>2021-04-01T16:15:05+02:00</time>
      </trkpt>
      <trkpt lat="44.93131" lon="5.73515">
        <ele>1332</ele>
        <time>2021-04-01T16:15:31+02:00</time>
      </trkpt>
      <trkpt lat="44.93153" lon="5.73528">
        <ele>1324</ele>
        <time>2021-04-01T16:16:00+02:00</time>
      </trkpt>
      <trkpt lat="44.93173" lon="5.73542">
        <ele>1324</ele>
        <time>2021-04-01T16:16:24+02:00</time>
      </trkpt>
      <trkpt lat="44.93194" lon="5.73554">
        <ele>1320</ele>
        <time>2021-04-01T16:16:50+02:00</time>
      </trkpt>
      <trkpt lat="44.93217" lon="5.73561">
        <ele>1318</ele>
        <time>2021-04-01T16:17:12+02:00</time>
      </trkpt>
      <trkpt lat="44.93237" lon="5.73578">
        <ele>1314</ele>
        <time>2021-04-01T16:17:35+02:00</time>
      </trkpt>
      <trkpt lat="44.93254" lon="5.736">
        <ele>1312</ele>
        <time>2021-04-01T16:17:58+02:00</time>
      </trkpt>
      <trkpt lat="44.93276" lon="5.73607">
        <ele>1310</ele>
        <time>2021-04-01T16:18:21+02:00</time>
      </trkpt>
      <trkpt lat="44.933" lon="5.73609">
        <ele>1310</ele>
        <time>2021-04-01T16:18:42+02:00</time>
      </trkpt>
      <trkpt lat="44.93323" lon="5.7361">
        <ele>1313</ele>
        <time>2021-04-01T16:19:03+02:00</time>
      </trkpt>
      <trkpt lat="44.93346" lon="5.73606">
        <ele>1310</ele>
        <time>2021-04-01T16:19:28+02:00</time>
      </trkpt>
      <trkpt lat="44.93367" lon="5.73621">
        <ele>1311</ele>
        <time>2021-04-01T16:19:55+02:00</time>
      </trkpt>
      <trkpt lat="44.9338" lon="5.73648">
        <ele>1305</ele>
        <time>2021-04-01T16:20:24+02:00</time>
      </trkpt>
      <trkpt lat="44.93392" lon="5.73676">
        <ele>1300</ele>
        <time>2021-04-01T16:20:48+02:00</time>
      </trkpt>
      <trkpt lat="44.93399" lon="5.73707">
        <ele>1296</ele>
        <time>2021-04-01T16:21:07+02:00</time>
      </trkpt>
      <trkpt lat="44.93412" lon="5.73734">
        <ele>1289</ele>
        <time>2021-04-01T16:21:30+02:00</time>
      </trkpt>
      <trkpt lat="44.93418" lon="5.73765">
        <ele>1290</ele>
        <time>2021-04-01T16:21:58+02:00</time>
      </trkpt>
    </trkseg>
  </trk>
</gpx>